Дата Пункты Температура Давл., мм. Влажн., % Ветер Погодные явления
Воздуха Воды Направл. Скорость
02.02.18 08:00 Одесса 6.0 6.0 756 85 Ю-З 2 20 ЧАСОВ
02.02.18 05:00 Одесса 7.0 6.0 756 83 Ю 2 17 ЧАСОВ
02.02.18 02:00 Одесса 7.0 6.0 755 84 Ю 3 14 ЧАСОВ
02.02.18 11:00 Одесса 7.0 5.0 756 69 Ю-З 1 11 ЧАСОВ
02.02.18 08:00 Одесса 4.0 5.0 756 78 Ю-З 3 08 ЧАСОВ
02.02.18 05:00 Одесса 3.0 4.0 756 84 З 3 05 ЧАСОВ
02.02.18 02:00 Одесса 3.0 4.0 757 93 Ю-З 2 02 ЧАСА
01.02.18 11:00 Одесса 5.0 4.0 757 96 Ю-З 1 23 ЧАСА
01.02.18 08:00 Одесса 6.0 4.0 757 93 Ю-З 3 20 ЧАСОВ
01.02.18 05:00 Одесса 6.0 5.0 757 93 Ю-З 2 17 ЧАСОВ
01.02.18 02:00 Одесса 7.0 5.0 758 86 Ю 6 14 ЧАСОВ
01.02.18 11:00 Одесса 7.0 4.0 760 82 Ю 5 11 ЧАСОВ
01.02.18 08:00 Одесса 4.0 4.0 760 87 Ю 2 08 ЧАСОВ
01.02.18 05:00 Одесса 3.0 3.0 761 86 Ю 2 05 ЧАСОВ
01.02.18 02:00 Одесса 2.0 3.0 762 71 Ю-З 2 02 ЧАСА
31.01.18 11:00 Одесса 1.0 3.0 763 75 З 2 23 ЧАСА
31.01.18 08:00 Одесса 1.0 3.0 763 72 З 2 20 ЧАСОВ
31.01.18 05:00 Одесса 4.0 3.0 763 61 С-З 2 17 ЧАСОВ
31.01.18 02:00 Одесса 7.0 3.0 763 51 З 3 14 ЧАСОВ
31.01.18 11:00 Одесса 6.0 3.0 763 53 З 4 11 ЧАСОВ
Количество строк
1 2 3 4 5 6 7 8 9 10
Page 7 of 330